Time;durP1;ratioP1;P1;durP2;ratioP2;P2;SDS_P1;SDS_P2;PMS_P1;PMS_P2;Temp;Humidity;BMP_temperature;BMP_pressure;BME280_temperature;BME280_humidity;BME280_pressure;Samples;Min_cycle;Max_cycle;Signal;HPM_P1;HPM_P2
2022/08/13 00:01:37;;;;;;;1.95;1.35;;;;;;;;;;4977741;28;20208;-36
2022/08/13 00:04:04;;;;;;;1.17;1.10;;;;;;;;;;4972396;28;20211;-38
2022/08/13 00:09:19;;;;;;;1.27;1.23;;;;;;;;;;4985926;28;20258;-36
2022/08/13 00:14:33;;;;;;;0.97;0.97;;;;;;;;;;4976697;28;20212;-39
2022/08/13 00:17:01;;;;;;;1.10;1.00;;;;;;;;;;4986301;28;20234;-39
2022/08/13 00:19:30;;;;;;;1.20;1.20;;;;;;;;;;4978967;28;20238;-40
2022/08/13 00:21:57;;;;;;;1.00;1.00;;;;;;;;;;4980977;28;20212;-38
2022/08/13 00:24:25;;;;;;;2.20;1.20;;;;;;;;;;4992633;28;20263;-37
2022/08/13 00:26:54;;;;;;;1.30;1.20;;;;;;;;;;4971354;28;20228;-41
2022/08/13 00:29:21;;;;;;;0.90;0.90;;;;;;;;;;4970776;28;20232;-37
2022/08/13 00:31:49;;;;;;;0.97;0.97;;;;;;;;;;4971458;28;20213;-33
2022/08/13 00:34:17;;;;;;;1.60;1.50;;;;;;;;;;4991659;28;20525;-40
2022/08/13 00:36:44;;;;;;;2.03;1.05;;;;;;;;;;4987091;28;20315;-35
2022/08/13 00:39:12;;;;;;;1.10;1.00;;;;;;;;;;4980770;28;20216;-35
2022/08/13 00:41:42;;;;;;;2.83;1.20;;;;;;;;;;4984666;28;20200;-37
2022/08/13 00:44:11;;;;;;;1.40;1.30;;;;;;;;;;4989983;28;20210;-33
2022/08/13 00:46:38;;;;;;;2.53;1.00;;;;;;;;;;4983072;28;20227;-35
2022/08/13 00:49:05;;;;;;;1.17;1.00;;;;;;;;;;4983557;28;20224;-41
2022/08/13 00:51:34;;;;;;;1.27;1.17;;;;;;;;;;4985021;28;20318;-38
2022/08/13 00:54:02;;;;;;;1.00;1.00;;;;;;;;;;4999136;28;20215;-40
2022/08/13 00:56:33;;;;;;;1.40;1.30;;;;;;;;;;4993261;28;20266;-38
2022/08/13 00:59:07;;;;;;;1.23;1.20;;;;;;;;;;4993206;28;20207;-37
2022/08/13 01:01:36;;;;;;;1.10;1.10;;;;;;;;;;4987791;28;20218;-35
2022/08/13 01:04:04;;;;;;;1.17;1.17;;;;;;;;;;4999066;28;20203;-36
2022/08/13 01:06:31;;;;;;;1.10;1.10;;;;;;;;;;4970370;28;20219;-38
2022/08/13 01:08:59;;;;;;;1.33;1.10;;;;;;;;;;4997999;28;20223;-32
2022/08/13 01:11:26;;;;;;;1.00;1.00;;;;;;;;;;4987652;28;20215;-39
2022/08/13 01:13:53;;;;;;;1.27;1.10;;;;;;;;;;4988997;28;20218;-37
2022/08/13 01:16:21;;;;;;;1.13;1.13;;;;;;;;;;4991555;28;20203;-41
2022/08/13 01:18:51;;;;;;;1.43;1.10;;;;;;;;;;4980339;28;20220;-38
2022/08/13 01:21:18;;;;;;;1.20;1.10;;;;;;;;;;4980717;28;20216;-34
2022/08/13 01:23:48;;;;;;;3.67;1.40;;;;;;;;;;4987816;28;20208;-41
2022/08/13 01:26:16;;;;;;;0.97;0.97;;;;;;;;;;4992558;28;20203;-34
2022/08/13 01:28:44;;;;;;;2.20;1.20;;;;;;;;;;4992369;28;20231;-36
2022/08/13 01:31:13;;;;;;;1.20;1.17;;;;;;;;;;4986923;28;20212;-36
2022/08/13 01:33:43;;;;;;;1.07;1.00;;;;;;;;;;4979664;28;20208;-43
2022/08/13 01:36:11;;;;;;;2.63;1.20;;;;;;;;;;4979140;28;20239;-39
2022/08/13 01:38:40;;;;;;;1.10;1.10;;;;;;;;;;4972440;28;20240;-36
2022/08/13 01:41:09;;;;;;;1.17;1.17;;;;;;;;;;4988577;28;20211;-34
2022/08/13 01:43:37;;;;;;;2.83;1.30;;;;;;;;;;4972241;28;20205;-40
2022/08/13 01:46:06;;;;;;;1.27;1.17;;;;;;;;;;4984356;28;20216;-39
2022/08/13 01:51:21;;;;;;;2.63;1.30;;;;;;;;;;4972209;28;20926;-36
2022/08/13 01:53:49;;;;;;;1.30;1.20;;;;;;;;;;4987725;28;20468;-39
2022/08/13 01:56:21;;;;;;;1.00;1.00;;;;;;;;;;4980608;28;20204;-37
2022/08/13 01:58:49;;;;;;;1.20;1.10;;;;;;;;;;4972640;28;20239;-42
2022/08/13 02:01:17;;;;;;;1.33;1.33;;;;;;;;;;4971052;28;20212;-32
2022/08/13 02:03:49;;;;;;;1.20;1.10;;;;;;;;;;4986494;28;20226;-37
2022/08/13 02:06:21;;;;;;;3.13;1.30;;;;;;;;;;4987771;28;20314;-38
2022/08/13 02:08:51;;;;;;;1.37;1.27;;;;;;;;;;4987197;28;20237;-40
2022/08/13 02:11:20;;;;;;;1.30;1.20;;;;;;;;;;4983053;28;20200;-35
2022/08/13 02:13:48;;;;;;;1.03;1.03;;;;;;;;;;4991804;28;20211;-42
2022/08/13 02:18:44;;;;;;;1.47;1.20;;;;;;;;;;5023720;28;20214;-41
2022/08/13 02:21:11;;;;;;;1.33;1.27;;;;;;;;;;5013388;28;20213;-41
2022/08/13 02:23:38;;;;;;;1.43;1.30;;;;;;;;;;5021586;28;20214;-41
2022/08/13 02:26:07;;;;;;;1.20;1.10;;;;;;;;;;5023780;28;20202;-42
2022/08/13 02:28:37;;;;;;;1.00;1.00;;;;;;;;;;5034030;28;20253;-40
2022/08/13 02:31:04;;;;;;;1.70;1.43;;;;;;;;;;5014065;28;20217;-44
2022/08/13 02:33:37;;;;;;;1.40;1.30;;;;;;;;;;5018422;28;20209;-40
2022/08/13 02:36:10;;;;;;;1.10;1.10;;;;;;;;;;5031393;28;20201;-42
2022/08/13 02:38:37;;;;;;;1.80;1.00;;;;;;;;;;5013882;28;20308;-41
2022/08/13 02:43:51;;;;;;;0.97;0.97;;;;;;;;;;5013808;28;20190;-43
2022/08/13 02:46:21;;;;;;;1.60;1.30;;;;;;;;;;5020466;28;20222;-43
2022/08/13 02:48:49;;;;;;;1.10;1.10;;;;;;;;;;5033234;28;20209;-41
2022/08/13 02:51:16;;;;;;;1.30;1.23;;;;;;;;;;5029330;28;20238;-44
2022/08/13 02:53:43;;;;;;;1.77;1.30;;;;;;;;;;5028180;28;20213;-41
2022/08/13 02:56:10;;;;;;;1.27;1.13;;;;;;;;;;5024594;28;20205;-42
2022/08/13 02:58:38;;;;;;;1.33;1.07;;;;;;;;;;5032471;28;20222;-44
2022/08/13 03:01:10;;;;;;;1.30;1.20;;;;;;;;;;5017913;28;20579;-41
2022/08/13 03:03:37;;;;;;;1.27;1.17;;;;;;;;;;5012064;28;20210;-42
2022/08/13 03:06:05;;;;;;;1.40;1.30;;;;;;;;;;5028690;28;20539;-42
2022/08/13 03:08:32;;;;;;;1.50;1.40;;;;;;;;;;5018059;28;20225;-40
2022/08/13 03:11:00;;;;;;;1.40;1.23;;;;;;;;;;5032313;28;20218;-42
2022/08/13 03:13:28;;;;;;;1.30;1.20;;;;;;;;;;5013313;28;20677;-44
2022/08/13 03:15:56;;;;;;;1.23;1.23;;;;;;;;;;5016957;28;20207;-39
2022/08/13 03:18:25;;;;;;;1.53;1.30;;;;;;;;;;5028419;28;20237;-38
2022/08/13 03:20:52;;;;;;;1.40;1.20;;;;;;;;;;5012562;28;20195;-40
2022/08/13 03:23:20;;;;;;;1.30;1.20;;;;;;;;;;5014613;28;20210;-43
2022/08/13 03:25:47;;;;;;;1.37;1.27;;;;;;;;;;5012899;28;20237;-41
2022/08/13 03:28:14;;;;;;;1.37;1.30;;;;;;;;;;5032236;28;20303;-42
2022/08/13 03:30:41;;;;;;;1.50;1.40;;;;;;;;;;5031234;28;20236;-42
2022/08/13 03:33:09;;;;;;;2.77;1.50;;;;;;;;;;5014945;28;20214;-42
2022/08/13 03:35:39;;;;;;;1.10;1.10;;;;;;;;;;5027006;28;20233;-42
2022/08/13 03:38:08;;;;;;;1.73;1.10;;;;;;;;;;5023162;28;20225;-43
2022/08/13 03:43:21;;;;;;;1.30;1.20;;;;;;;;;;5032798;28;20248;-41
2022/08/13 03:45:48;;;;;;;1.20;1.20;;;;;;;;;;5031209;28;20209;-37
2022/08/13 03:48:16;;;;;;;1.23;1.17;;;;;;;;;;5024524;28;20241;-41
2022/08/13 03:50:45;;;;;;;1.20;1.10;;;;;;;;;;5012759;28;20249;-38
2022/08/13 03:53:13;;;;;;;1.20;1.10;;;;;;;;;;5027740;28;20210;-42
2022/08/13 03:55:42;;;;;;;1.17;1.17;;;;;;;;;;5024409;28;20198;-39
2022/08/13 03:58:10;;;;;;;1.87;1.30;;;;;;;;;;5032739;28;20234;-41
2022/08/13 04:00:38;;;;;;;2.83;1.23;;;;;;;;;;5033004;28;20202;-38
2022/08/13 04:03:14;;;;;;;1.30;1.30;;;;;;;;;;5024105;28;20202;-40
2022/08/13 04:05:41;;;;;;;1.50;1.33;;;;;;;;;;5020007;28;20195;-41
2022/08/13 04:08:10;;;;;;;1.70;1.60;;;;;;;;;;5015462;28;20225;-42
2022/08/13 04:10:37;;;;;;;1.13;1.13;;;;;;;;;;5012977;28;20238;-39
2022/08/13 04:13:04;;;;;;;1.50;1.40;;;;;;;;;;5012681;28;20884;-41
2022/08/13 04:15:31;;;;;;;1.27;1.17;;;;;;;;;;5022599;28;20214;-38
2022/08/13 04:17:59;;;;;;;1.30;1.27;;;;;;;;;;5023868;28;20725;-43
2022/08/13 04:20:26;;;;;;;3.40;1.20;;;;;;;;;;5032765;28;20210;-40
2022/08/13 04:22:53;;;;;;;0.90;0.90;;;;;;;;;;5023429;28;20213;-44
2022/08/13 04:25:23;;;;;;;1.23;1.13;;;;;;;;;;5013388;28;20511;-41
2022/08/13 04:27:50;;;;;;;1.47;1.40;;;;;;;;;;5016346;28;20730;-42
2022/08/13 04:30:20;;;;;;;1.20;1.20;;;;;;;;;;5018410;28;20226;-42
2022/08/13 04:32:48;;;;;;;1.30;1.20;;;;;;;;;;5020013;28;20221;-39
2022/08/13 04:35:15;;;;;;;1.53;1.10;;;;;;;;;;5016136;28;20210;-39
2022/08/13 04:37:42;;;;;;;1.53;1.43;;;;;;;;;;5019277;28;20582;-39
2022/08/13 04:40:12;;;;;;;1.63;1.53;;;;;;;;;;5015729;28;20206;-41
2022/08/13 04:42:48;;;;;;;1.70;1.60;;;;;;;;;;5030525;28;20305;-42
2022/08/13 04:45:15;;;;;;;1.43;1.33;;;;;;;;;;5030441;28;20240;-41
2022/08/13 04:47:43;;;;;;;1.43;1.37;;;;;;;;;;5017756;28;20235;-42
2022/08/13 04:50:10;;;;;;;1.43;1.33;;;;;;;;;;5021808;28;20225;-40
2022/08/13 04:52:37;;;;;;;1.40;1.40;;;;;;;;;;5021327;28;20216;-38
2022/08/13 04:55:06;;;;;;;1.73;1.50;;;;;;;;;;5027187;28;20206;-39
2022/08/13 04:57:33;;;;;;;1.17;1.17;;;;;;;;;;5035852;28;20320;-38
2022/08/13 05:00:04;;;;;;;1.53;1.43;;;;;;;;;;5031363;28;20216;-39
2022/08/13 05:02:31;;;;;;;1.80;1.33;;;;;;;;;;5021857;28;20213;-39
2022/08/13 05:04:58;;;;;;;1.80;1.47;;;;;;;;;;5023984;28;20206;-39
2022/08/13 05:07:26;;;;;;;2.60;1.30;;;;;;;;;;5020072;28;20228;-40
2022/08/13 05:09:54;;;;;;;2.00;1.90;;;;;;;;;;5027148;28;20320;-37
2022/08/13 05:12:21;;;;;;;4.83;1.30;;;;;;;;;;5027375;28;20264;-41
2022/08/13 05:14:49;;;;;;;1.80;1.70;;;;;;;;;;5030390;28;20202;-38
2022/08/13 05:17:17;;;;;;;1.50;1.40;;;;;;;;;;5023420;28;20237;-42
2022/08/13 05:19:46;;;;;;;1.23;1.20;;;;;;;;;;5022305;28;20195;-40
2022/08/13 05:22:13;;;;;;;3.20;1.73;;;;;;;;;;5024613;28;20210;-41
2022/08/13 05:24:41;;;;;;;1.57;1.57;;;;;;;;;;5016017;28;20213;-41
2022/08/13 05:27:09;;;;;;;2.10;1.33;;;;;;;;;;5015568;28;20228;-41
2022/08/13 05:29:37;;;;;;;1.80;1.70;;;;;;;;;;5019272;28;20310;-39
2022/08/13 05:32:05;;;;;;;1.80;1.70;;;;;;;;;;5026199;28;20207;-39
2022/08/13 05:34:34;;;;;;;1.90;1.80;;;;;;;;;;5026277;28;20212;-40
2022/08/13 05:37:01;;;;;;;2.10;1.33;;;;;;;;;;5026354;28;20256;-40
2022/08/13 05:39:29;;;;;;;1.60;1.50;;;;;;;;;;5034789;28;20217;-43
2022/08/13 05:41:56;;;;;;;4.67;1.63;;;;;;;;;;5018212;28;20197;-39
2022/08/13 05:44:23;;;;;;;1.97;1.77;;;;;;;;;;5015195;28;20217;-42
2022/08/13 05:46:51;;;;;;;1.50;1.47;;;;;;;;;;5014596;28;20261;-38
2022/08/13 05:49:18;;;;;;;1.80;1.70;;;;;;;;;;5025784;28;20208;-41
2022/08/13 05:51:49;;;;;;;1.80;1.70;;;;;;;;;;5017406;28;20724;-36
2022/08/13 05:54:16;;;;;;;1.70;1.60;;;;;;;;;;5030681;28;20292;-43
2022/08/13 05:56:43;;;;;;;1.93;1.73;;;;;;;;;;5028974;28;20231;-42
2022/08/13 06:03:22;;;;;;;1.87;1.70;;;;;;;;;;5033929;28;20688;-38
2022/08/13 06:04:42;;;;;;;2.00;1.90;;;;;;;;;;5026687;28;20678;-42
2022/08/13 06:07:15;;;;;;;1.83;1.67;;;;;;;;;;5021133;28;20227;-38
2022/08/13 06:09:42;;;;;;;1.83;1.73;;;;;;;;;;5028034;28;20220;-38
2022/08/13 06:12:09;;;;;;;1.90;1.80;;;;;;;;;;5023860;28;20218;-38
2022/08/13 06:14:36;;;;;;;2.40;1.90;;;;;;;;;;5012947;28;20439;-41
2022/08/13 06:17:04;;;;;;;1.80;1.67;;;;;;;;;;5022794;28;20242;-41
2022/08/13 06:19:32;;;;;;;1.70;1.60;;;;;;;;;;5019378;28;20220;-40
2022/08/13 06:22:02;;;;;;;1.90;1.80;;;;;;;;;;5028474;28;20207;-42
2022/08/13 06:24:32;;;;;;;1.77;1.67;;;;;;;;;;5031146;28;20248;-39
2022/08/13 06:27:04;;;;;;;2.20;2.00;;;;;;;;;;5032912;28;20228;-37
2022/08/13 06:29:32;;;;;;;2.20;1.60;;;;;;;;;;5030375;28;20333;-39
2022/08/13 06:32:00;;;;;;;4.10;2.10;;;;;;;;;;5024614;28;20258;-39
2022/08/13 06:34:27;;;;;;;2.00;1.90;;;;;;;;;;5026732;28;20204;-39
2022/08/13 06:36:54;;;;;;;1.50;1.40;;;;;;;;;;5025796;28;20226;-43
2022/08/13 06:39:21;;;;;;;1.80;1.70;;;;;;;;;;5013797;28;20212;-36
2022/08/13 06:41:50;;;;;;;1.97;1.80;;;;;;;;;;5014034;28;20213;-40
2022/08/13 06:44:17;;;;;;;1.93;1.83;;;;;;;;;;5013803;28;20681;-40
2022/08/13 06:46:45;;;;;;;1.70;1.60;;;;;;;;;;5014597;28;20230;-36
2022/08/13 06:49:12;;;;;;;1.87;1.70;;;;;;;;;;5015493;28;20210;-41
2022/08/13 06:51:40;;;;;;;2.27;2.00;;;;;;;;;;5028057;28;20222;-38
2022/08/13 06:54:09;;;;;;;1.67;1.57;;;;;;;;;;5031275;28;20570;-37
2022/08/13 06:56:36;;;;;;;3.53;1.87;;;;;;;;;;5019463;28;20221;-44
2022/08/13 06:59:05;;;;;;;1.67;1.57;;;;;;;;;;5030544;28;20668;-41
2022/08/13 07:01:33;;;;;;;1.63;1.52;;;;;;;;;;5018399;28;20581;-39
2022/08/13 07:04:00;;;;;;;2.35;1.70;;;;;;;;;;5016039;28;20202;-44
2022/08/13 07:06:28;;;;;;;2.25;1.95;;;;;;;;;;5014479;28;20797;-41
2022/08/13 07:08:57;;;;;;;3.08;1.63;;;;;;;;;;5012528;28;20839;-42
2022/08/13 07:11:24;;;;;;;1.60;1.50;;;;;;;;;;5021240;28;20217;-41
2022/08/13 07:13:54;;;;;;;1.70;1.60;;;;;;;;;;5013763;28;20300;-41
2022/08/13 07:16:24;;;;;;;1.77;1.67;;;;;;;;;;5017017;28;20205;-42
2022/08/13 07:18:52;;;;;;;1.58;1.52;;;;;;;;;;5025151;28;20205;-43
2022/08/13 07:21:20;;;;;;;1.60;1.50;;;;;;;;;;5028885;28;20205;-43
2022/08/13 07:23:47;;;;;;;1.40;1.30;;;;;;;;;;5021340;28;20214;-45
2022/08/13 07:26:16;;;;;;;1.60;1.42;;;;;;;;;;5029611;28;20209;-44
2022/08/13 07:28:45;;;;;;;2.22;1.40;;;;;;;;;;5011446;28;20207;-42
2022/08/13 07:31:13;;;;;;;1.58;1.40;;;;;;;;;;5012896;28;20226;-46
2022/08/13 07:33:43;;;;;;;1.27;1.27;;;;;;;;;;5017647;28;20230;-44
2022/08/13 07:36:12;;;;;;;1.55;1.38;;;;;;;;;;5020017;28;20213;-44
2022/08/13 07:38:40;;;;;;;2.67;1.50;;;;;;;;;;5029366;28;20232;-39
2022/08/13 07:41:07;;;;;;;1.27;1.27;;;;;;;;;;5013563;28;20195;-43
2022/08/13 07:43:36;;;;;;;1.55;1.45;;;;;;;;;;5031005;28;20217;-46
2022/08/13 07:46:09;;;;;;;2.58;1.30;;;;;;;;;;5029635;28;20236;-42
2022/08/13 07:48:37;;;;;;;1.45;1.35;;;;;;;;;;5019656;28;20596;-42
2022/08/13 07:51:07;;;;;;;2.35;1.42;;;;;;;;;;5021378;28;20704;-43
2022/08/13 07:53:35;;;;;;;1.50;1.40;;;;;;;;;;5025008;28;20290;-43
2022/08/13 07:56:06;;;;;;;1.20;1.10;;;;;;;;;;5029205;28;20206;-41
2022/08/13 07:58:34;;;;;;;4.57;1.30;;;;;;;;;;5012498;28;20230;-43
2022/08/13 08:01:02;;;;;;;1.48;1.38;;;;;;;;;;5019403;28;20206;-45
2022/08/13 08:03:32;;;;;;;1.50;1.40;;;;;;;;;;5030488;28;20214;-44
2022/08/13 08:06:03;;;;;;;1.40;1.25;;;;;;;;;;5016209;28;20245;-44
2022/08/13 08:08:33;;;;;;;2.58;1.50;;;;;;;;;;5028610;28;20447;-44
2022/08/13 08:11:01;;;;;;;1.48;1.38;;;;;;;;;;5024770;28;20215;-45
2022/08/13 08:13:30;;;;;;;1.20;1.20;;;;;;;;;;5016851;28;20211;-45
2022/08/13 08:18:37;;;;;;;2.40;1.38;;;;;;;;;;5177012;22;20241;-41
2022/08/13 08:21:05;;;;;;;4.47;1.88;;;;;;;;;;5033163;28;20213;-44
2022/08/13 08:23:36;;;;;;;2.90;1.70;;;;;;;;;;5034176;28;20224;-43
2022/08/13 08:26:06;;;;;;;2.30;1.63;;;;;;;;;;5042260;28;20205;-42
2022/08/13 08:28:34;;;;;;;4.22;1.70;;;;;;;;;;5034698;28;20233;-42
2022/08/13 08:31:06;;;;;;;2.60;1.63;;;;;;;;;;5038355;28;20257;-42
2022/08/13 08:33:34;;;;;;;1.55;1.45;;;;;;;;;;5046350;28;20297;-40
2022/08/13 08:36:02;;;;;;;2.85;1.40;;;;;;;;;;5050372;28;20208;-41
2022/08/13 08:44:04;;;;;;;1.60;1.50;;;;;;;;;;5055869;28;20192;-39
2022/08/13 08:46:34;;;;;;;1.60;1.50;;;;;;;;;;5045304;28;20244;-42
2022/08/13 08:49:04;;;;;;;1.50;1.40;;;;;;;;;;5040808;28;20204;-42
2022/08/13 08:51:32;;;;;;;1.80;1.30;;;;;;;;;;5048648;28;20340;-44
2022/08/13 08:54:00;;;;;;;1.40;1.30;;;;;;;;;;5035690;28;20237;-39
2022/08/13 08:56:33;;;;;;;2.40;1.30;;;;;;;;;;5047301;28;20318;-42
2022/08/13 08:59:01;;;;;;;4.45;1.70;;;;;;;;;;5055186;28;20197;-42
2022/08/13 09:01:28;;;;;;;1.80;1.50;;;;;;;;;;5049623;28;20209;-38
2022/08/13 09:03:56;;;;;;;2.10;1.40;;;;;;;;;;5049180;28;20211;-42
2022/08/13 09:06:25;;;;;;;2.95;1.35;;;;;;;;;;5033786;28;20209;-43
2022/08/13 09:08:53;;;;;;;1.40;1.30;;;;;;;;;;5035211;28;20215;-41
2022/08/13 09:11:20;;;;;;;3.05;1.50;;;;;;;;;;5034448;28;20218;-41
2022/08/13 09:13:50;;;;;;;4.45;1.40;;;;;;;;;;5034673;28;20753;-43
2022/08/13 09:16:17;;;;;;;1.70;1.60;;;;;;;;;;5038337;28;20273;-39
2022/08/13 09:18:45;;;;;;;1.50;1.40;;;;;;;;;;5048333;28;20227;-43
2022/08/13 09:21:12;;;;;;;1.35;1.35;;;;;;;;;;5050151;28;20206;-40
2022/08/13 09:23:46;;;;;;;1.55;1.45;;;;;;;;;;5039015;28;20263;-38
2022/08/13 09:26:13;;;;;;;2.22;1.30;;;;;;;;;;5045743;28;20242;-41
2022/08/13 09:28:42;;;;;;;1.20;1.20;;;;;;;;;;5054835;28;20380;-39
2022/08/13 09:31:11;;;;;;;2.00;1.40;;;;;;;;;;5049334;28;20261;-39
2022/08/13 09:33:39;;;;;;;1.45;1.35;;;;;;;;;;5043807;28;20217;-41
2022/08/13 09:36:07;;;;;;;1.65;1.33;;;;;;;;;;5043222;28;20204;-43
2022/08/13 09:38:35;;;;;;;3.55;1.50;;;;;;;;;;5033701;28;20230;-41
2022/08/13 09:41:05;;;;;;;1.77;1.20;;;;;;;;;;5033111;28;20222;-39
2022/08/13 09:43:37;;;;;;;1.70;1.60;;;;;;;;;;5033161;28;20216;-41
2022/08/13 09:46:05;;;;;;;1.48;1.38;;;;;;;;;;5043423;28;20207;-43
2022/08/13 09:48:33;;;;;;;1.35;1.25;;;;;;;;;;5033604;28;20232;-41
2022/08/13 09:51:02;;;;;;;2.70;1.45;;;;;;;;;;5048884;28;20233;-43
2022/08/13 09:53:30;;;;;;;2.28;1.80;;;;;;;;;;5038471;28;20668;-45
2022/08/13 09:55:57;;;;;;;1.40;1.30;;;;;;;;;;5033119;28;20204;-41
2022/08/13 09:58:24;;;;;;;1.88;1.20;;;;;;;;;;5032661;28;20235;-43
2022/08/13 10:00:55;;;;;;;1.50;1.45;;;;;;;;;;5042153;28;20204;-42
2022/08/13 10:03:23;;;;;;;1.85;1.50;;;;;;;;;;5044652;28;20197;-43
2022/08/13 10:05:51;;;;;;;1.40;1.30;;;;;;;;;;5051517;28;20280;-41
2022/08/13 10:08:19;;;;;;;2.30;1.50;;;;;;;;;;5033770;28;20227;-43
2022/08/13 10:10:48;;;;;;;1.50;1.40;;;;;;;;;;5044774;28;20205;-37
2022/08/13 10:13:15;;;;;;;1.35;1.35;;;;;;;;;;5052146;28;20599;-42
2022/08/13 10:15:42;;;;;;;1.15;1.15;;;;;;;;;;5051817;28;20291;-40
2022/08/13 10:18:10;;;;;;;3.25;1.30;;;;;;;;;;5039790;28;20235;-43
2022/08/13 10:20:38;;;;;;;1.15;1.15;;;;;;;;;;5042433;28;20209;-43
2022/08/13 10:23:09;;;;;;;2.28;1.50;;;;;;;;;;5042206;28;20225;-42
2022/08/13 10:25:37;;;;;;;2.10;1.33;;;;;;;;;;5040458;28;20212;-39
2022/08/13 10:28:14;;;;;;;1.75;1.65;;;;;;;;;;5050996;28;20254;-41
2022/08/13 10:30:43;;;;;;;1.25;1.25;;;;;;;;;;5050495;28;20206;-41
2022/08/13 10:33:11;;;;;;;1.60;1.50;;;;;;;;;;5041486;28;20230;-42
2022/08/13 10:35:38;;;;;;;1.65;1.52;;;;;;;;;;5038783;28;20213;-44
2022/08/13 10:38:08;;;;;;;1.95;1.42;;;;;;;;;;5042648;28;20259;-41
2022/08/13 10:40:45;;;;;;;1.10;1.10;;;;;;;;;;5044860;28;20228;-39
2022/08/13 10:43:14;;;;;;;2.08;1.40;;;;;;;;;;5033755;28;20197;-44
2022/08/13 10:45:41;;;;;;;2.28;1.52;;;;;;;;;;5032802;28;20208;-37
2022/08/13 10:48:11;;;;;;;1.70;1.50;;;;;;;;;;5040057;28;20319;-42
2022/08/13 10:50:38;;;;;;;1.70;1.40;;;;;;;;;;5039192;28;20304;-40
2022/08/13 10:53:08;;;;;;;1.48;1.30;;;;;;;;;;5033213;28;20224;-45
2022/08/13 10:55:36;;;;;;;2.00;1.65;;;;;;;;;;5038329;28;20209;-42
2022/08/13 10:58:03;;;;;;;1.30;1.30;;;;;;;;;;5049561;28;20289;-42
2022/08/13 11:00:31;;;;;;;1.40;1.30;;;;;;;;;;5048723;28;20299;-39
2022/08/13 11:02:58;;;;;;;1.42;1.33;;;;;;;;;;5045257;28;20204;-43
2022/08/13 11:05:27;;;;;;;2.90;1.30;;;;;;;;;;5039974;28;20291;-39
2022/08/13 11:07:54;;;;;;;1.70;1.60;;;;;;;;;;5034214;28;20236;-41
2022/08/13 11:10:23;;;;;;;1.38;1.27;;;;;;;;;;5043228;28;20207;-39
2022/08/13 11:12:51;;;;;;;1.58;1.48;;;;;;;;;;5035543;28;20235;-42
2022/08/13 11:15:20;;;;;;;1.60;1.50;;;;;;;;;;5030960;28;20207;-42
2022/08/13 11:17:48;;;;;;;3.20;1.38;;;;;;;;;;5044145;28;20247;-42
2022/08/13 11:20:18;;;;;;;1.40;1.40;;;;;;;;;;5043965;28;20212;-43
2022/08/13 11:22:45;;;;;;;1.63;1.52;;;;;;;;;;5035231;28;20200;-45
2022/08/13 11:25:13;;;;;;;1.45;1.35;;;;;;;;;;5040784;28;20211;-43
2022/08/13 11:27:41;;;;;;;1.88;1.50;;;;;;;;;;5032510;28;20228;-44
2022/08/13 11:30:09;;;;;;;6.30;1.60;;;;;;;;;;5039193;28;20217;-42
2022/08/13 11:32:36;;;;;;;1.65;1.40;;;;;;;;;;5041534;28;20235;-42
2022/08/13 11:35:03;;;;;;;1.20;1.20;;;;;;;;;;5034433;28;20220;-40
2022/08/13 11:37:31;;;;;;;1.80;1.40;;;;;;;;;;5030387;28;20240;-39
2022/08/13 11:39:58;;;;;;;1.30;1.23;;;;;;;;;;5031281;28;20209;-41
2022/08/13 11:42:25;;;;;;;1.63;1.52;;;;;;;;;;5031983;28;20209;-41
2022/08/13 11:44:54;;;;;;;1.75;1.45;;;;;;;;;;5030318;28;20216;-38
2022/08/13 11:47:21;;;;;;;2.97;1.63;;;;;;;;;;5040014;28;20240;-40
2022/08/13 11:49:48;;;;;;;4.45;1.50;;;;;;;;;;5045589;28;20209;-38
2022/08/13 11:52:15;;;;;;;2.40;1.55;;;;;;;;;;5033513;28;20232;-45
2022/08/13 11:54:42;;;;;;;1.00;1.00;;;;;;;;;;5040220;28;20208;-40
2022/08/13 11:57:10;;;;;;;1.90;1.45;;;;;;;;;;5052548;28;20315;-40
2022/08/13 11:59:37;;;;;;;2.13;1.38;;;;;;;;;;5049602;28;20228;-43
2022/08/13 12:02:06;;;;;;;1.48;1.38;;;;;;;;;;5048523;28;20208;-37
2022/08/13 12:04:36;;;;;;;3.20;1.30;;;;;;;;;;5045508;28;20239;-40
2022/08/13 12:07:03;;;;;;;1.42;1.33;;;;;;;;;;5047834;28;20308;-41
2022/08/13 12:09:30;;;;;;;1.45;1.35;;;;;;;;;;5049957;28;20230;-43
2022/08/13 12:12:00;;;;;;;2.33;1.20;;;;;;;;;;5034967;28;20722;-40
2022/08/13 12:14:27;;;;;;;1.25;1.15;;;;;;;;;;5032175;28;20219;-42
2022/08/13 12:16:56;;;;;;;1.70;1.23;;;;;;;;;;5035038;28;20229;-41
2022/08/13 12:19:25;;;;;;;1.52;1.30;;;;;;;;;;5031567;28;20205;-45
2022/08/13 12:21:52;;;;;;;1.17;1.08;;;;;;;;;;5038788;28;20292;-40
2022/08/13 12:24:19;;;;;;;1.73;1.40;;;;;;;;;;5044027;28;20213;-42
2022/08/13 12:26:46;;;;;;;1.55;1.20;;;;;;;;;;5043351;28;20232;-43
2022/08/13 12:29:13;;;;;;;3.30;1.40;;;;;;;;;;5049371;28;20205;-35
2022/08/13 12:31:40;;;;;;;1.52;1.40;;;;;;;;;;5039875;28;20276;-39
2022/08/13 12:34:08;;;;;;;2.10;1.20;;;;;;;;;;5051334;28;20202;-42
2022/08/13 12:36:36;;;;;;;2.15;1.10;;;;;;;;;;5045508;28;20209;-44
2022/08/13 12:39:04;;;;;;;2.03;1.45;;;;;;;;;;5032646;28;20224;-41
2022/08/13 12:41:32;;;;;;;1.13;1.13;;;;;;;;;;5051627;28;20205;-44
2022/08/13 12:43:59;;;;;;;2.42;1.20;;;;;;;;;;5051988;28;20210;-43
2022/08/13 12:46:26;;;;;;;1.13;1.02;;;;;;;;;;5042741;28;20205;-42
2022/08/13 12:48:53;;;;;;;2.03;1.05;;;;;;;;;;5048737;28;20209;-40
2022/08/13 12:51:20;;;;;;;1.52;1.42;;;;;;;;;;5033730;28;20296;-40
2022/08/13 12:53:48;;;;;;;1.15;1.05;;;;;;;;;;5043189;28;20233;-41
2022/08/13 12:56:16;;;;;;;3.60;1.48;;;;;;;;;;5036773;28;20194;-41
2022/08/13 12:58:43;;;;;;;1.30;1.20;;;;;;;;;;5054236;28;20229;-45
2022/08/13 13:01:10;;;;;;;1.27;1.20;;;;;;;;;;5049564;28;20209;-45
2022/08/13 13:03:37;;;;;;;3.22;1.98;;;;;;;;;;5055406;28;20204;-37
2022/08/13 13:06:04;;;;;;;1.10;1.10;;;;;;;;;;5054172;28;20213;-41
2022/08/13 13:08:32;;;;;;;2.15;1.05;;;;;;;;;;5037767;28;20241;-42
2022/08/13 13:11:03;;;;;;;1.38;1.30;;;;;;;;;;5051040;28;20200;-42
2022/08/13 13:13:35;;;;;;;1.20;1.10;;;;;;;;;;5034595;28;20221;-40
2022/08/13 13:16:03;;;;;;;1.20;1.20;;;;;;;;;;5038421;28;20244;-41
2022/08/13 13:18:30;;;;;;;1.38;1.27;;;;;;;;;;5044868;28;20261;-39
2022/08/13 13:20:58;;;;;;;2.75;1.38;;;;;;;;;;5041177;28;20225;-43
2022/08/13 13:23:26;;;;;;;3.60;1.15;;;;;;;;;;5038999;28;20244;-42
2022/08/13 13:25:53;;;;;;;1.30;1.20;;;;;;;;;;5038350;28;20264;-38
2022/08/13 13:28:23;;;;;;;1.40;1.30;;;;;;;;;;5035139;28;20317;-44
2022/08/13 13:30:50;;;;;;;2.05;1.23;;;;;;;;;;5034143;28;20276;-42
2022/08/13 13:33:19;;;;;;;1.30;1.20;;;;;;;;;;5042746;28;20280;-40
2022/08/13 13:35:47;;;;;;;2.95;2.40;;;;;;;;;;5049922;28;20290;-43
2022/08/13 13:38:17;;;;;;;1.33;1.20;;;;;;;;;;5043154;28;20229;-42
2022/08/13 13:40:46;;;;;;;1.25;1.20;;;;;;;;;;5055029;28;20284;-40
2022/08/13 13:43:14;;;;;;;1.40;1.30;;;;;;;;;;5054018;28;20200;-42
2022/08/13 13:45:42;;;;;;;1.13;1.02;;;;;;;;;;5044578;28;20305;-38
2022/08/13 13:48:26;;;;;;;1.63;1.38;;;;;;;;;;5045745;28;20226;-43
2022/08/13 13:50:57;;;;;;;2.15;1.30;;;;;;;;;;5053682;28;20216;-37
2022/08/13 13:53:26;;;;;;;1.58;1.10;;;;;;;;;;5048282;28;20261;-42
2022/08/13 13:55:53;;;;;;;2.47;1.27;;;;;;;;;;5042602;28;20286;-43
2022/08/13 13:58:21;;;;;;;1.13;1.08;;;;;;;;;;5034074;28;20227;-40
2022/08/13 14:00:52;;;;;;;2.33;1.17;;;;;;;;;;5034718;28;20203;-45
2022/08/13 14:03:24;;;;;;;1.23;1.13;;;;;;;;;;5037056;28;20205;-40
2022/08/13 14:05:52;;;;;;;1.83;1.17;;;;;;;;;;5054083;28;20198;-43
2022/08/13 14:08:19;;;;;;;1.15;1.15;;;;;;;;;;5045037;28;20245;-45
2022/08/13 14:10:52;;;;;;;1.20;1.20;;;;;;;;;;5054208;28;20212;-42
2022/08/13 14:13:19;;;;;;;1.35;1.15;;;;;;;;;;5054507;28;20214;-40
2022/08/13 14:15:48;;;;;;;1.42;1.17;;;;;;;;;;5052873;28;20259;-43
2022/08/13 14:18:17;;;;;;;1.98;1.30;;;;;;;;;;5132948;22;20307;-32
2022/08/13 14:20:45;;;;;;;2.67;1.10;;;;;;;;;;5053057;28;20225;-30
2022/08/13 14:23:13;;;;;;;1.70;1.17;;;;;;;;;;5037640;28;20281;-29
2022/08/13 14:25:41;;;;;;;0.93;0.93;;;;;;;;;;5053314;28;20208;-30
2022/08/13 14:28:09;;;;;;;1.10;1.00;;;;;;;;;;5053031;28;20907;-30
2022/08/13 14:30:36;;;;;;;1.08;1.08;;;;;;;;;;5044980;28;20214;-32
2022/08/13 14:33:05;;;;;;;4.13;1.05;;;;;;;;;;5050901;28;20229;-30
2022/08/13 14:35:34;;;;;;;2.42;1.10;;;;;;;;;;5053699;28;20212;-32
2022/08/13 14:38:01;;;;;;;1.45;1.20;;;;;;;;;;5045946;28;20225;-32
2022/08/13 14:40:28;;;;;;;1.55;1.45;;;;;;;;;;5046826;28;20194;-30
2022/08/13 14:42:57;;;;;;;1.08;1.08;;;;;;;;;;5053522;28;20197;-30
2022/08/13 14:45:41;;;;;;;1.55;1.20;;;;;;;;;;5046004;28;20210;-31
2022/08/13 14:48:09;;;;;;;2.42;1.52;;;;;;;;;;5051684;28;20225;-30
2022/08/13 14:50:38;;;;;;;1.20;1.10;;;;;;;;;;5053637;28;20742;-33
2022/08/13 14:53:06;;;;;;;1.10;1.10;;;;;;;;;;5047306;28;20229;-31
2022/08/13 14:55:34;;;;;;;1.25;1.23;;;;;;;;;;5046399;28;20205;-30
2022/08/13 14:58:01;;;;;;;4.78;1.50;;;;;;;;;;5053658;28;20233;-30
2022/08/13 15:00:30;;;;;;;3.13;1.10;;;;;;;;;;5049388;28;20570;-32
2022/08/13 15:02:58;;;;;;;1.48;1.10;;;;;;;;;;5044988;28;20205;-31
2022/08/13 15:05:28;;;;;;;1.95;1.20;;;;;;;;;;5052896;28;20193;-31
2022/08/13 15:07:57;;;;;;;3.50;1.10;;;;;;;;;;5045277;28;20233;-32
2022/08/13 15:10:25;;;;;;;1.73;1.10;;;;;;;;;;5045174;28;20194;-32
2022/08/13 15:12:52;;;;;;;2.50;1.33;;;;;;;;;;5052992;28;20221;-30
2022/08/13 15:15:21;;;;;;;1.25;1.10;;;;;;;;;;5050843;28;20684;-29
2022/08/13 15:17:49;;;;;;;1.48;1.40;;;;;;;;;;5041677;28;20233;-30